Osage, Wyoming
Current Conditions -  °F | °C
As of 2:15 PM on Monday 22 Dec 2014 (Local Time) from KECS Reporting Station
Scattered Clouds Scattered Clouds  
Wind Chill: 20°   Ceiling: Unl
Heat Index: 34°   Visibility: 10mi
Dew Point: 23°   Wind: 32mph
Humidity: 65%   Direction: 310°NW
Pressure: 29.62"   Gusts: 39mph
Location:  43.98°N, 104.42°W
Report Text: KECS 222115Z AUTO 31028G34KT 10SM SCT008 SCT013 SCT018 01/M05 A2962 RMK AO2
Loading
Personal Weather Stations






























Interactive Weather Map New forecast layout! Learn more

10-Day Weather Forecast

Advertisements
Track Severe Weather on mobile